sensor_id;sensor_type;location;lat;lon;timestamp;P1;durP1;ratioP1;P2;durP2;ratioP2
27925;SDS011;15267;47.838;12.128;2024-02-16T00:00:16;16.90;;;8.90;;
27925;SDS011;15267;47.838;12.128;2024-02-16T00:02:42;12.45;;;8.43;;
27925;SDS011;15267;47.838;12.128;2024-02-16T00:05:09;12.82;;;7.97;;
27925;SDS011;15267;47.838;12.128;2024-02-16T00:07:36;11.10;;;8.23;;
27925;SDS011;15267;47.838;12.128;2024-02-16T00:10:03;12.57;;;8.10;;
27925;SDS011;15267;47.838;12.128;2024-02-16T00:12:29;9.88;;;7.90;;
27925;SDS011;15267;47.838;12.128;2024-02-16T00:14:56;10.20;;;7.53;;
27925;SDS011;15267;47.838;12.128;2024-02-16T00:17:22;11.57;;;8.30;;
27925;SDS011;15267;47.838;12.128;2024-02-16T00:19:51;10.75;;;8.45;;
27925;SDS011;15267;47.838;12.128;2024-02-16T00:22:17;12.52;;;8.90;;
27925;SDS011;15267;47.838;12.128;2024-02-16T00:24:43;12.27;;;8.32;;
27925;SDS011;15267;47.838;12.128;2024-02-16T00:27:09;11.90;;;8.27;;
27925;SDS011;15267;47.838;12.128;2024-02-16T00:29:35;12.82;;;7.57;;
27925;SDS011;15267;47.838;12.128;2024-02-16T00:32:03;11.40;;;8.73;;
27925;SDS011;15267;47.838;12.128;2024-02-16T00:34:31;11.38;;;8.25;;
27925;SDS011;15267;47.838;12.128;2024-02-16T00:36:57;14.07;;;9.45;;
27925;SDS011;15267;47.838;12.128;2024-02-16T00:39:23;11.07;;;7.68;;
27925;SDS011;15267;47.838;12.128;2024-02-16T00:41:50;13.95;;;8.68;;
27925;SDS011;15267;47.838;12.128;2024-02-16T00:44:16;12.75;;;8.35;;
27925;SDS011;15267;47.838;12.128;2024-02-16T00:46:42;13.20;;;8.68;;
27925;SDS011;15267;47.838;12.128;2024-02-16T00:49:08;11.68;;;8.25;;
27925;SDS011;15267;47.838;12.128;2024-02-16T00:51:35;11.27;;;8.05;;
27925;SDS011;15267;47.838;12.128;2024-02-16T00:54:01;12.57;;;7.88;;
27925;SDS011;15267;47.838;12.128;2024-02-16T00:56:28;10.00;;;7.60;;
27925;SDS011;15267;47.838;12.128;2024-02-16T00:58:54;9.45;;;6.90;;
27925;SDS011;15267;47.838;12.128;2024-02-16T01:01:20;9.00;;;6.90;;
27925;SDS011;15267;47.838;12.128;2024-02-16T01:03:47;9.98;;;6.85;;
27925;SDS011;15267;47.838;12.128;2024-02-16T01:06:13;10.23;;;6.53;;
27925;SDS011;15267;47.838;12.128;2024-02-16T01:08:40;9.52;;;6.70;;
27925;SDS011;15267;47.838;12.128;2024-02-16T01:11:06;10.20;;;6.75;;
27925;SDS011;15267;47.838;12.128;2024-02-16T01:13:32;9.88;;;6.55;;
27925;SDS011;15267;47.838;12.128;2024-02-16T01:15:59;12.05;;;7.03;;
27925;SDS011;15267;47.838;12.128;2024-02-16T01:18:25;9.85;;;6.80;;
27925;SDS011;15267;47.838;12.128;2024-02-16T01:20:51;9.70;;;7.10;;
27925;SDS011;15267;47.838;12.128;2024-02-16T01:23:17;9.32;;;6.40;;
27925;SDS011;15267;47.838;12.128;2024-02-16T01:25:43;10.00;;;6.78;;
27925;SDS011;15267;47.838;12.128;2024-02-16T01:28:09;10.75;;;6.75;;
27925;SDS011;15267;47.838;12.128;2024-02-16T01:30:37;14.27;;;6.70;;
27925;SDS011;15267;47.838;12.128;2024-02-16T01:33:03;9.05;;;6.25;;
27925;SDS011;15267;47.838;12.128;2024-02-16T01:35:30;9.38;;;6.55;;
27925;SDS011;15267;47.838;12.128;2024-02-16T01:37:56;11.25;;;6.70;;
27925;SDS011;15267;47.838;12.128;2024-02-16T01:40:21;9.68;;;6.22;;
27925;SDS011;15267;47.838;12.128;2024-02-16T01:42:51;9.23;;;5.85;;
27925;SDS011;15267;47.838;12.128;2024-02-16T01:45:17;9.05;;;6.03;;
27925;SDS011;15267;47.838;12.128;2024-02-16T01:47:44;11.10;;;6.10;;
27925;SDS011;15267;47.838;12.128;2024-02-16T01:50:11;10.18;;;6.45;;
27925;SDS011;15267;47.838;12.128;2024-02-16T01:52:38;10.32;;;6.10;;
27925;SDS011;15267;47.838;12.128;2024-02-16T01:55:04;8.93;;;5.90;;
27925;SDS011;15267;47.838;12.128;2024-02-16T01:57:33;8.68;;;6.47;;
27925;SDS011;15267;47.838;12.128;2024-02-16T01:59:59;12.93;;;7.63;;
27925;SDS011;15267;47.838;12.128;2024-02-16T02:02:26;14.52;;;8.23;;
27925;SDS011;15267;47.838;12.128;2024-02-16T02:04:52;11.57;;;7.43;;
27925;SDS011;15267;47.838;12.128;2024-02-16T02:07:18;10.32;;;7.55;;
27925;SDS011;15267;47.838;12.128;2024-02-16T02:09:45;11.48;;;7.53;;
27925;SDS011;15267;47.838;12.128;2024-02-16T02:12:11;15.07;;;7.72;;
27925;SDS011;15267;47.838;12.128;2024-02-16T02:14:37;8.75;;;6.82;;
27925;SDS011;15267;47.838;12.128;2024-02-16T02:17:03;9.75;;;7.30;;
27925;SDS011;15267;47.838;12.128;2024-02-16T02:19:29;10.43;;;7.22;;
27925;SDS011;15267;47.838;12.128;2024-02-16T02:21:55;8.23;;;6.13;;
27925;SDS011;15267;47.838;12.128;2024-02-16T02:24:22;9.18;;;5.68;;
27925;SDS011;15267;47.838;12.128;2024-02-16T02:26:48;8.80;;;6.00;;
27925;SDS011;15267;47.838;12.128;2024-02-16T02:29:13;11.20;;;6.32;;
27925;SDS011;15267;47.838;12.128;2024-02-16T02:31:40;7.13;;;5.35;;
27925;SDS011;15267;47.838;12.128;2024-02-16T02:34:06;8.05;;;5.95;;
27925;SDS011;15267;47.838;12.128;2024-02-16T02:36:32;7.82;;;5.70;;
27925;SDS011;15267;47.838;12.128;2024-02-16T02:38:58;7.97;;;6.03;;
27925;SDS011;15267;47.838;12.128;2024-02-16T02:41:24;8.75;;;6.15;;
27925;SDS011;15267;47.838;12.128;2024-02-16T02:43:50;9.18;;;5.93;;
27925;SDS011;15267;47.838;12.128;2024-02-16T02:46:17;9.48;;;5.65;;
27925;SDS011;15267;47.838;12.128;2024-02-16T02:48:43;10.02;;;6.13;;
27925;SDS011;15267;47.838;12.128;2024-02-16T02:51:10;7.75;;;5.70;;
27925;SDS011;15267;47.838;12.128;2024-02-16T02:53:36;7.95;;;5.85;;
27925;SDS011;15267;47.838;12.128;2024-02-16T02:56:02;8.55;;;5.55;;
27925;SDS011;15267;47.838;12.128;2024-02-16T02:58:28;8.18;;;5.70;;
27925;SDS011;15267;47.838;12.128;2024-02-16T03:00:54;7.13;;;5.47;;
27925;SDS011;15267;47.838;12.128;2024-02-16T03:03:20;8.40;;;5.53;;
27925;SDS011;15267;47.838;12.128;2024-02-16T03:05:46;8.55;;;5.55;;
27925;SDS011;15267;47.838;12.128;2024-02-16T03:08:13;10.23;;;6.97;;
27925;SDS011;15267;47.838;12.128;2024-02-16T03:10:39;12.05;;;6.20;;
27925;SDS011;15267;47.838;12.128;2024-02-16T03:13:05;8.32;;;6.18;;
27925;SDS011;15267;47.838;12.128;2024-02-16T03:15:34;9.70;;;6.95;;
27925;SDS011;15267;47.838;12.128;2024-02-16T03:18:01;16.27;;;7.50;;
27925;SDS011;15267;47.838;12.128;2024-02-16T03:20:27;8.43;;;6.82;;
27925;SDS011;15267;47.838;12.128;2024-02-16T03:22:55;9.80;;;6.57;;
27925;SDS011;15267;47.838;12.128;2024-02-16T03:25:21;10.20;;;6.60;;
27925;SDS011;15267;47.838;12.128;2024-02-16T03:27:48;8.40;;;6.05;;
27925;SDS011;15267;47.838;12.128;2024-02-16T03:30:15;7.65;;;6.22;;
27925;SDS011;15267;47.838;12.128;2024-02-16T03:32:41;6.43;;;5.40;;
27925;SDS011;15267;47.838;12.128;2024-02-16T03:35:07;7.90;;;5.38;;
27925;SDS011;15267;47.838;12.128;2024-02-16T03:37:33;9.57;;;5.93;;
27925;SDS011;15267;47.838;12.128;2024-02-16T03:39:59;8.50;;;5.85;;
27925;SDS011;15267;47.838;12.128;2024-02-16T03:42:25;7.78;;;5.45;;
27925;SDS011;15267;47.838;12.128;2024-02-16T03:44:51;6.68;;;5.22;;
27925;SDS011;15267;47.838;12.128;2024-02-16T03:47:18;7.95;;;4.95;;
27925;SDS011;15267;47.838;12.128;2024-02-16T03:49:44;8.00;;;5.50;;
27925;SDS011;15267;47.838;12.128;2024-02-16T03:52:10;7.60;;;5.80;;
27925;SDS011;15267;47.838;12.128;2024-02-16T03:54:36;7.13;;;4.93;;
27925;SDS011;15267;47.838;12.128;2024-02-16T03:57:02;9.50;;;5.00;;
27925;SDS011;15267;47.838;12.128;2024-02-16T03:59:29;6.82;;;5.00;;
27925;SDS011;15267;47.838;12.128;2024-02-16T04:01:55;7.78;;;5.18;;
27925;SDS011;15267;47.838;12.128;2024-02-16T04:04:21;5.43;;;4.70;;
27925;SDS011;15267;47.838;12.128;2024-02-16T04:06:47;5.82;;;4.97;;
27925;SDS011;15267;47.838;12.128;2024-02-16T04:09:13;7.93;;;4.95;;
27925;SDS011;15267;47.838;12.128;2024-02-16T04:11:40;7.47;;;5.25;;
27925;SDS011;15267;47.838;12.128;2024-02-16T04:14:06;6.20;;;5.07;;
27925;SDS011;15267;47.838;12.128;2024-02-16T04:16:33;8.32;;;4.97;;
27925;SDS011;15267;47.838;12.128;2024-02-16T04:18:59;6.03;;;5.13;;
27925;SDS011;15267;47.838;12.128;2024-02-16T04:21:25;7.65;;;5.43;;
27925;SDS011;15267;47.838;12.128;2024-02-16T04:23:51;8.20;;;5.63;;
27925;SDS011;15267;47.838;12.128;2024-02-16T04:26:17;9.07;;;5.53;;
27925;SDS011;15267;47.838;12.128;2024-02-16T04:28:43;11.23;;;6.22;;
27925;SDS011;15267;47.838;12.128;2024-02-16T04:31:09;11.07;;;5.93;;
27925;SDS011;15267;47.838;12.128;2024-02-16T04:33:35;8.95;;;5.80;;
27925;SDS011;15267;47.838;12.128;2024-02-16T04:36:01;12.82;;;5.85;;
27925;SDS011;15267;47.838;12.128;2024-02-16T04:38:27;14.40;;;7.20;;
27925;SDS011;15267;47.838;12.128;2024-02-16T04:40:52;9.38;;;6.07;;
27925;SDS011;15267;47.838;12.128;2024-02-16T04:43:19;12.30;;;6.57;;
27925;SDS011;15267;47.838;12.128;2024-02-16T04:45:45;9.95;;;6.00;;
27925;SDS011;15267;47.838;12.128;2024-02-16T04:48:11;8.40;;;6.07;;
27925;SDS011;15267;47.838;12.128;2024-02-16T04:50:37;9.77;;;6.40;;
27925;SDS011;15267;47.838;12.128;2024-02-16T04:53:03;13.38;;;6.65;;
27925;SDS011;15267;47.838;12.128;2024-02-16T04:55:29;10.85;;;7.20;;
27925;SDS011;15267;47.838;12.128;2024-02-16T04:57:56;9.82;;;6.50;;
27925;SDS011;15267;47.838;12.128;2024-02-16T05:00:22;9.23;;;6.53;;
27925;SDS011;15267;47.838;12.128;2024-02-16T05:02:48;11.13;;;6.50;;
27925;SDS011;15267;47.838;12.128;2024-02-16T05:05:14;8.52;;;6.35;;
27925;SDS011;15267;47.838;12.128;2024-02-16T05:07:41;10.88;;;7.03;;
27925;SDS011;15267;47.838;12.128;2024-02-16T05:10:08;12.93;;;8.13;;
27925;SDS011;15267;47.838;12.128;2024-02-16T05:12:34;9.95;;;7.78;;
27925;SDS011;15267;47.838;12.128;2024-02-16T05:15:00;8.80;;;7.65;;
27925;SDS011;15267;47.838;12.128;2024-02-16T05:17:26;13.07;;;7.85;;
27925;SDS011;15267;47.838;12.128;2024-02-16T05:19:52;10.20;;;7.70;;
27925;SDS011;15267;47.838;12.128;2024-02-16T05:22:19;10.32;;;7.97;;
27925;SDS011;15267;47.838;12.128;2024-02-16T05:24:46;10.02;;;7.53;;
27925;SDS011;15267;47.838;12.128;2024-02-16T05:27:12;10.75;;;6.95;;
27925;SDS011;15267;47.838;12.128;2024-02-16T05:29:39;10.77;;;7.38;;
27925;SDS011;15267;47.838;12.128;2024-02-16T05:32:05;8.65;;;6.22;;
27925;SDS011;15267;47.838;12.128;2024-02-16T05:34:31;10.40;;;7.05;;
27925;SDS011;15267;47.838;12.128;2024-02-16T05:37:03;10.88;;;7.32;;
27925;SDS011;15267;47.838;12.128;2024-02-16T05:39:31;10.85;;;7.05;;
27925;SDS011;15267;47.838;12.128;2024-02-16T05:41:59;8.90;;;7.15;;
27925;SDS011;15267;47.838;12.128;2024-02-16T05:44:26;10.32;;;6.55;;
27925;SDS011;15267;47.838;12.128;2024-02-16T05:46:53;10.98;;;7.20;;
27925;SDS011;15267;47.838;12.128;2024-02-16T05:49:19;11.70;;;7.22;;
27925;SDS011;15267;47.838;12.128;2024-02-16T05:51:45;10.07;;;7.35;;
27925;SDS011;15267;47.838;12.128;2024-02-16T05:54:31;10.73;;;7.95;;
27925;SDS011;15267;47.838;12.128;2024-02-16T05:56:57;15.10;;;8.13;;
27925;SDS011;15267;47.838;12.128;2024-02-16T05:59:23;11.80;;;8.15;;
27925;SDS011;15267;47.838;12.128;2024-02-16T06:01:50;10.75;;;7.90;;
27925;SDS011;15267;47.838;12.128;2024-02-16T06:04:16;12.60;;;8.15;;
27925;SDS011;15267;47.838;12.128;2024-02-16T06:06:42;12.98;;;7.70;;
27925;SDS011;15267;47.838;12.128;2024-02-16T06:09:08;12.80;;;9.35;;
27925;SDS011;15267;47.838;12.128;2024-02-16T06:11:36;11.65;;;8.48;;
27925;SDS011;15267;47.838;12.128;2024-02-16T06:14:03;12.73;;;8.60;;
27925;SDS011;15267;47.838;12.128;2024-02-16T06:16:29;12.43;;;9.10;;
27925;SDS011;15267;47.838;12.128;2024-02-16T06:18:55;11.05;;;7.95;;
27925;SDS011;15267;47.838;12.128;2024-02-16T06:21:21;10.73;;;8.23;;
27925;SDS011;15267;47.838;12.128;2024-02-16T06:23:47;12.43;;;7.50;;
27925;SDS011;15267;47.838;12.128;2024-02-16T06:26:13;11.70;;;7.80;;
27925;SDS011;15267;47.838;12.128;2024-02-16T06:28:38;13.27;;;7.35;;
27925;SDS011;15267;47.838;12.128;2024-02-16T06:31:04;11.00;;;7.43;;
27925;SDS011;15267;47.838;12.128;2024-02-16T06:33:30;8.65;;;6.10;;
27925;SDS011;15267;47.838;12.128;2024-02-16T06:35:56;9.23;;;6.90;;
27925;SDS011;15267;47.838;12.128;2024-02-16T06:38:23;9.98;;;7.40;;
27925;SDS011;15267;47.838;12.128;2024-02-16T06:40:49;9.18;;;7.15;;
27925;SDS011;15267;47.838;12.128;2024-02-16T06:43:15;11.32;;;8.35;;
27925;SDS011;15267;47.838;12.128;2024-02-16T06:45:41;11.00;;;8.30;;
27925;SDS011;15267;47.838;12.128;2024-02-16T06:48:07;10.90;;;7.85;;
27925;SDS011;15267;47.838;12.128;2024-02-16T06:50:33;13.50;;;8.27;;
27925;SDS011;15267;47.838;12.128;2024-02-16T06:52:59;13.38;;;8.40;;
27925;SDS011;15267;47.838;12.128;2024-02-16T06:55:25;16.40;;;11.50;;
27925;SDS011;15267;47.838;12.128;2024-02-16T06:57:50;17.92;;;10.73;;
27925;SDS011;15267;47.838;12.128;2024-02-16T07:00:17;14.85;;;9.55;;
27925;SDS011;15267;47.838;12.128;2024-02-16T07:02:44;12.35;;;8.77;;
27925;SDS011;15267;47.838;12.128;2024-02-16T07:05:11;13.05;;;9.25;;
27925;SDS011;15267;47.838;12.128;2024-02-16T07:07:37;14.50;;;9.43;;
27925;SDS011;15267;47.838;12.128;2024-02-16T07:10:03;16.55;;;10.85;;
27925;SDS011;15267;47.838;12.128;2024-02-16T07:12:30;23.38;;;16.33;;
27925;SDS011;15267;47.838;12.128;2024-02-16T07:14:58;17.75;;;12.20;;
27925;SDS011;15267;47.838;12.128;2024-02-16T07:17:24;17.05;;;10.80;;
27925;SDS011;15267;47.838;12.128;2024-02-16T07:19:50;17.17;;;11.38;;
27925;SDS011;15267;47.838;12.128;2024-02-16T07:22:16;23.90;;;14.13;;
27925;SDS011;15267;47.838;12.128;2024-02-16T07:24:42;18.58;;;11.07;;
27925;SDS011;15267;47.838;12.128;2024-02-16T07:27:08;15.43;;;10.18;;
27925;SDS011;15267;47.838;12.128;2024-02-16T07:29:35;18.10;;;9.77;;
27925;SDS011;15267;47.838;12.128;2024-02-16T07:32:04;14.90;;;10.38;;
27925;SDS011;15267;47.838;12.128;2024-02-16T07:34:30;15.55;;;10.45;;
27925;SDS011;15267;47.838;12.128;2024-02-16T07:36:56;13.40;;;9.95;;
27925;SDS011;15267;47.838;12.128;2024-02-16T07:39:22;17.25;;;9.73;;
27925;SDS011;15267;47.838;12.128;2024-02-16T07:41:49;15.40;;;9.48;;
27925;SDS011;15267;47.838;12.128;2024-02-16T07:44:15;13.23;;;9.57;;
27925;SDS011;15267;47.838;12.128;2024-02-16T07:46:41;15.30;;;9.50;;
27925;SDS011;15267;47.838;12.128;2024-02-16T07:49:07;5.40;;;3.60;;
27925;SDS011;15267;47.838;12.128;2024-02-16T07:51:35;12.30;;;6.45;;
27925;SDS011;15267;47.838;12.128;2024-02-16T07:54:02;12.43;;;7.28;;
27925;SDS011;15267;47.838;12.128;2024-02-16T07:56:28;14.60;;;6.97;;
27925;SDS011;15267;47.838;12.128;2024-02-16T07:58:55;12.93;;;8.10;;
27925;SDS011;15267;47.838;12.128;2024-02-16T08:01:21;13.07;;;9.35;;
27925;SDS011;15267;47.838;12.128;2024-02-16T08:03:47;15.23;;;9.82;;
27925;SDS011;15267;47.838;12.128;2024-02-16T08:06:13;11.75;;;8.65;;
27925;SDS011;15267;47.838;12.128;2024-02-16T08:08:39;9.32;;;7.97;;
27925;SDS011;15267;47.838;12.128;2024-02-16T08:11:05;16.58;;;11.23;;
27925;SDS011;15267;47.838;12.128;2024-02-16T08:13:31;15.27;;;9.27;;
27925;SDS011;15267;47.838;12.128;2024-02-16T08:15:57;14.52;;;10.15;;
27925;SDS011;15267;47.838;12.128;2024-02-16T08:18:23;12.23;;;6.93;;
27925;SDS011;15267;47.838;12.128;2024-02-16T08:20:49;11.43;;;7.80;;
27925;SDS011;15267;47.838;12.128;2024-02-16T08:23:15;13.88;;;8.00;;
27925;SDS011;15267;47.838;12.128;2024-02-16T08:25:41;10.60;;;8.15;;
27925;SDS011;15267;47.838;12.128;2024-02-16T08:28:07;12.48;;;7.70;;
27925;SDS011;15267;47.838;12.128;2024-02-16T08:30:33;8.65;;;6.20;;
27925;SDS011;15267;47.838;12.128;2024-02-16T08:33:00;10.18;;;6.13;;
27925;SDS011;15267;47.838;12.128;2024-02-16T08:35:26;9.40;;;6.13;;
27925;SDS011;15267;47.838;12.128;2024-02-16T08:37:53;6.70;;;5.20;;
27925;SDS011;15267;47.838;12.128;2024-02-16T08:40:19;5.95;;;4.30;;
27925;SDS011;15267;47.838;12.128;2024-02-16T08:42:45;10.02;;;4.28;;
27925;SDS011;15267;47.838;12.128;2024-02-16T08:45:12;6.63;;;4.15;;
27925;SDS011;15267;47.838;12.128;2024-02-16T08:47:38;6.18;;;3.40;;
27925;SDS011;15267;47.838;12.128;2024-02-16T08:50:05;3.40;;;2.90;;
27925;SDS011;15267;47.838;12.128;2024-02-16T08:52:32;6.60;;;2.65;;
27925;SDS011;15267;47.838;12.128;2024-02-16T08:54:58;5.90;;;2.78;;
27925;SDS011;15267;47.838;12.128;2024-02-16T08:57:23;5.20;;;2.17;;
27925;SDS011;15267;47.838;12.128;2024-02-16T08:59:49;3.30;;;2.00;;
27925;SDS011;15267;47.838;12.128;2024-02-16T09:02:15;4.22;;;2.15;;
27925;SDS011;15267;47.838;12.128;2024-02-16T09:04:41;2.97;;;2.30;;
27925;SDS011;15267;47.838;12.128;2024-02-16T09:07:07;2.92;;;2.10;;
27925;SDS011;15267;47.838;12.128;2024-02-16T09:09:33;3.95;;;1.90;;
27925;SDS011;15267;47.838;12.128;2024-02-16T09:11:59;2.13;;;1.70;;
27925;SDS011;15267;47.838;12.128;2024-02-16T09:14:25;4.38;;;1.60;;
27925;SDS011;15267;47.838;12.128;2024-02-16T09:16:51;3.60;;;1.60;;
27925;SDS011;15267;47.838;12.128;2024-02-16T09:19:17;3.55;;;1.67;;
27925;SDS011;15267;47.838;12.128;2024-02-16T09:21:44;2.17;;;1.55;;
27925;SDS011;15267;47.838;12.128;2024-02-16T09:24:10;6.10;;;1.80;;
27925;SDS011;15267;47.838;12.128;2024-02-16T09:26:42;4.22;;;2.28;;
27925;SDS011;15267;47.838;12.128;2024-02-16T09:29:08;4.47;;;1.83;;
27925;SDS011;15267;47.838;12.128;2024-02-16T09:31:34;40.25;;;21.63;;
27925;SDS011;15267;47.838;12.128;2024-02-16T09:34:00;5.75;;;1.95;;
27925;SDS011;15267;47.838;12.128;2024-02-16T09:36:27;4.80;;;1.67;;
27925;SDS011;15267;47.838;12.128;2024-02-16T09:38:53;3.70;;;1.50;;
27925;SDS011;15267;47.838;12.128;2024-02-16T09:41:19;4.70;;;2.08;;
27925;SDS011;15267;47.838;12.128;2024-02-16T09:43:45;3.28;;;1.40;;
27925;SDS011;15267;47.838;12.128;2024-02-16T09:46:11;2.53;;;1.50;;
27925;SDS011;15267;47.838;12.128;2024-02-16T09:48:37;2.70;;;1.80;;
27925;SDS011;15267;47.838;12.128;2024-02-16T09:51:05;2.83;;;1.60;;
27925;SDS011;15267;47.838;12.128;2024-02-16T09:53:31;3.15;;;1.52;;
27925;SDS011;15267;47.838;12.128;2024-02-16T09:55:56;4.43;;;1.58;;
27925;SDS011;15267;47.838;12.128;2024-02-16T09:58:23;4.53;;;1.83;;
27925;SDS011;15267;47.838;12.128;2024-02-16T10:00:52;4.57;;;1.85;;
27925;SDS011;15267;47.838;12.128;2024-02-16T10:03:29;3.90;;;2.00;;
27925;SDS011;15267;47.838;12.128;2024-02-16T10:06:04;5.97;;;1.60;;
27925;SDS011;15267;47.838;12.128;2024-02-16T10:08:31;5.57;;;2.20;;
27925;SDS011;15267;47.838;12.128;2024-02-16T10:11:01;4.15;;;1.80;;
27925;SDS011;15267;47.838;12.128;2024-02-16T10:13:27;3.30;;;2.03;;
27925;SDS011;15267;47.838;12.128;2024-02-16T10:16:03;4.15;;;1.90;;
27925;SDS011;15267;47.838;12.128;2024-02-16T10:18:29;4.25;;;2.00;;
27925;SDS011;15267;47.838;12.128;2024-02-16T10:20:55;3.10;;;1.98;;
27925;SDS011;15267;47.838;12.128;2024-02-16T10:23:22;3.83;;;1.90;;
27925;SDS011;15267;47.838;12.128;2024-02-16T10:25:48;2.33;;;1.70;;
27925;SDS011;15267;47.838;12.128;2024-02-16T10:28:14;2.95;;;2.00;;
27925;SDS011;15267;47.838;12.128;2024-02-16T10:30:41;4.38;;;1.95;;
27925;SDS011;15267;47.838;12.128;2024-02-16T10:33:08;3.58;;;2.08;;
27925;SDS011;15267;47.838;12.128;2024-02-16T10:35:35;6.25;;;2.00;;
27925;SDS011;15267;47.838;12.128;2024-02-16T10:38:02;4.45;;;1.90;;
27925;SDS011;15267;47.838;12.128;2024-02-16T10:40:32;2.83;;;1.95;;
27925;SDS011;15267;47.838;12.128;2024-02-16T10:43:00;2.28;;;1.58;;
27925;SDS011;15267;47.838;12.128;2024-02-16T10:45:28;4.88;;;2.00;;
27925;SDS011;15267;47.838;12.128;2024-02-16T10:47:53;3.50;;;1.67;;
27925;SDS011;15267;47.838;12.128;2024-02-16T10:50:19;4.00;;;2.13;;
27925;SDS011;15267;47.838;12.128;2024-02-16T10:52:45;3.15;;;1.60;;
27925;SDS011;15267;47.838;12.128;2024-02-16T10:55:12;2.47;;;1.45;;
27925;SDS011;15267;47.838;12.128;2024-02-16T10:57:39;3.20;;;1.98;;
27925;SDS011;15267;47.838;12.128;2024-02-16T11:00:08;2.40;;;1.40;;
27925;SDS011;15267;47.838;12.128;2024-02-16T11:02:52;2.80;;;1.50;;
27925;SDS011;15267;47.838;12.128;2024-02-16T11:08:24;2.47;;;1.55;;
27925;SDS011;15267;47.838;12.128;2024-02-16T11:10:54;2.08;;;1.30;;
27925;SDS011;15267;47.838;12.128;2024-02-16T11:13:24;4.55;;;1.50;;
27925;SDS011;15267;47.838;12.128;2024-02-16T11:15:58;3.38;;;1.27;;
27925;SDS011;15267;47.838;12.128;2024-02-16T11:18:27;2.22;;;1.40;;
27925;SDS011;15267;47.838;12.128;2024-02-16T11:20:54;1.65;;;1.30;;
27925;SDS011;15267;47.838;12.128;2024-02-16T11:23:24;2.33;;;1.23;;
27925;SDS011;15267;47.838;12.128;2024-02-16T11:25:53;1.90;;;1.45;;
27925;SDS011;15267;47.838;12.128;2024-02-16T11:28:19;3.25;;;1.50;;
27925;SDS011;15267;47.838;12.128;2024-02-16T11:30:45;2.17;;;1.30;;
27925;SDS011;15267;47.838;12.128;2024-02-16T11:33:11;3.00;;;1.50;;
27925;SDS011;15267;47.838;12.128;2024-02-16T11:35:37;1.92;;;1.20;;
27925;SDS011;15267;47.838;12.128;2024-02-16T11:38:03;2.72;;;1.40;;
27925;SDS011;15267;47.838;12.128;2024-02-16T11:40:30;2.67;;;1.40;;
27925;SDS011;15267;47.838;12.128;2024-02-16T11:42:59;3.42;;;1.73;;
27925;SDS011;15267;47.838;12.128;2024-02-16T11:45:25;3.30;;;1.63;;
27925;SDS011;15267;47.838;12.128;2024-02-16T11:48:02;5.47;;;1.77;;
27925;SDS011;15267;47.838;12.128;2024-02-16T11:50:28;4.57;;;2.03;;
27925;SDS011;15267;47.838;12.128;2024-02-16T11:52:54;2.75;;;1.83;;
27925;SDS011;15267;47.838;12.128;2024-02-16T11:55:20;3.45;;;1.85;;
27925;SDS011;15267;47.838;12.128;2024-02-16T11:57:46;4.32;;;2.10;;
27925;SDS011;15267;47.838;12.128;2024-02-16T12:00:15;4.28;;;1.88;;
27925;SDS011;15267;47.838;12.128;2024-02-16T12:02:41;2.65;;;1.63;;
27925;SDS011;15267;47.838;12.128;2024-02-16T12:05:08;3.78;;;1.60;;
27925;SDS011;15267;47.838;12.128;2024-02-16T12:07:36;2.38;;;1.40;;
27925;SDS011;15267;47.838;12.128;2024-02-16T12:10:05;4.15;;;1.60;;
27925;SDS011;15267;47.838;12.128;2024-02-16T12:12:32;4.40;;;1.75;;
27925;SDS011;15267;47.838;12.128;2024-02-16T12:14:58;1.92;;;1.30;;
27925;SDS011;15267;47.838;12.128;2024-02-16T12:17:24;2.72;;;1.30;;
27925;SDS011;15267;47.838;12.128;2024-02-16T12:19:51;4.15;;;1.45;;
27925;SDS011;15267;47.838;12.128;2024-02-16T12:22:17;5.10;;;1.52;;
27925;SDS011;15267;47.838;12.128;2024-02-16T12:24:44;7.97;;;1.80;;
27925;SDS011;15267;47.838;12.128;2024-02-16T12:27:10;5.97;;;1.75;;
27925;SDS011;15267;47.838;12.128;2024-02-16T12:29:36;2.30;;;1.40;;
27925;SDS011;15267;47.838;12.128;2024-02-16T12:32:02;3.65;;;1.48;;
27925;SDS011;15267;47.838;12.128;2024-02-16T12:34:28;3.65;;;1.30;;
27925;SDS011;15267;47.838;12.128;2024-02-16T12:36:54;4.57;;;1.52;;
27925;SDS011;15267;47.838;12.128;2024-02-16T12:39:20;4.10;;;1.60;;
27925;SDS011;15267;47.838;12.128;2024-02-16T12:41:49;8.55;;;1.60;;
27925;SDS011;15267;47.838;12.128;2024-02-16T12:44:15;6.32;;;1.55;;
27925;SDS011;15267;47.838;12.128;2024-02-16T12:46:41;4.43;;;1.48;;
27925;SDS011;15267;47.838;12.128;2024-02-16T12:49:08;2.85;;;1.45;;
27925;SDS011;15267;47.838;12.128;2024-02-16T12:51:34;3.05;;;1.38;;
27925;SDS011;15267;47.838;12.128;2024-02-16T12:54:00;4.88;;;1.50;;
27925;SDS011;15267;47.838;12.128;2024-02-16T12:56:29;2.80;;;1.30;;
27925;SDS011;15267;47.838;12.128;2024-02-16T12:58:55;4.43;;;1.33;;
27925;SDS011;15267;47.838;12.128;2024-02-16T13:01:21;4.45;;;1.50;;
27925;SDS011;15267;47.838;12.128;2024-02-16T13:03:47;1.60;;;1.20;;
27925;SDS011;15267;47.838;12.128;2024-02-16T13:06:13;1.65;;;1.10;;
27925;SDS011;15267;47.838;12.128;2024-02-16T13:08:39;2.33;;;1.10;;
27925;SDS011;15267;47.838;12.128;2024-02-16T13:11:05;2.67;;;1.30;;
27925;SDS011;15267;47.838;12.128;2024-02-16T13:13:31;5.20;;;1.55;;
27925;SDS011;15267;47.838;12.128;2024-02-16T13:15:57;2.10;;;1.20;;
27925;SDS011;15267;47.838;12.128;2024-02-16T13:18:24;3.08;;;1.17;;
27925;SDS011;15267;47.838;12.128;2024-02-16T13:20:50;1.40;;;1.10;;
27925;SDS011;15267;47.838;12.128;2024-02-16T13:23:16;2.70;;;1.10;;
27925;SDS011;15267;47.838;12.128;2024-02-16T13:25:42;3.25;;;1.15;;
27925;SDS011;15267;47.838;12.128;2024-02-16T13:28:08;1.60;;;1.10;;
27925;SDS011;15267;47.838;12.128;2024-02-16T13:30:34;6.30;;;1.10;;
27925;SDS011;15267;47.838;12.128;2024-02-16T13:33:00;3.25;;;1.20;;
27925;SDS011;15267;47.838;12.128;2024-02-16T13:35:26;1.83;;;1.17;;
27925;SDS011;15267;47.838;12.128;2024-02-16T13:37:53;3.03;;;1.20;;
27925;SDS011;15267;47.838;12.128;2024-02-16T13:40:19;3.45;;;1.30;;
27925;SDS011;15267;47.838;12.128;2024-02-16T13:42:46;1.95;;;1.05;;
27925;SDS011;15267;47.838;12.128;2024-02-16T13:45:13;6.03;;;1.25;;
27925;SDS011;15267;47.838;12.128;2024-02-16T13:47:39;3.33;;;1.40;;
27925;SDS011;15267;47.838;12.128;2024-02-16T13:50:05;3.05;;;1.17;;
27925;SDS011;15267;47.838;12.128;2024-02-16T13:52:31;1.77;;;1.15;;
27925;SDS011;15267;47.838;12.128;2024-02-16T13:54:57;1.83;;;1.23;;
27925;SDS011;15267;47.838;12.128;2024-02-16T13:57:23;3.08;;;1.40;;
27925;SDS011;15267;47.838;12.128;2024-02-16T13:59:49;2.92;;;1.50;;
27925;SDS011;15267;47.838;12.128;2024-02-16T14:02:15;2.42;;;1.50;;
27925;SDS011;15267;47.838;12.128;2024-02-16T14:04:42;1.80;;;1.17;;
27925;SDS011;15267;47.838;12.128;2024-02-16T14:07:08;3.03;;;1.20;;
27925;SDS011;15267;47.838;12.128;2024-02-16T14:09:34;2.65;;;1.20;;
27925;SDS011;15267;47.838;12.128;2024-02-16T14:12:01;2.13;;;1.25;;
27925;SDS011;15267;47.838;12.128;2024-02-16T14:14:27;1.60;;;1.30;;
27925;SDS011;15267;47.838;12.128;2024-02-16T14:16:53;1.80;;;1.15;;
27925;SDS011;15267;47.838;12.128;2024-02-16T14:19:20;2.30;;;1.30;;
27925;SDS011;15267;47.838;12.128;2024-02-16T14:21:46;2.00;;;1.20;;
27925;SDS011;15267;47.838;12.128;2024-02-16T14:24:12;2.88;;;1.38;;
27925;SDS011;15267;47.838;12.128;2024-02-16T14:26:38;1.60;;;1.25;;